Bayfield, CO (81122)

7:55 AM MDT on August 04, 2015 (GMT -0600)
Timberdale Ranch | | Change Station
CLOSE
Current Station
Personal Weather Station
Location: Bayfield, CO
Elevation: 7690 ft
Nearby Weather Stations

Elev 7690 ft 37.30 °N, 107.65 °W | Updated 24 minutes ago

Partly Cloudy
Partly Cloudy
55.3 °F
Feels Like 55.3 °F
N
1.8
Wind Variable Wind from NW
Gusts 1.8 mph

Today
High -- | Low -- °F
--% Chance of Precip.
Yesterday
High -- | Low -- °F
Precip. -- in
6:17 AM 8:15 PM
Waning Gibbous, 77% visible
Pressure 30.04 in
Visibility 10.0 miles
Clouds Clear
Dew Point 42 °F
Humidity 61%
Rainfall 0.00 in
Snow Depth Not available.
UV 0 out of 12
Pollen 5.50 out of 12
Air Quality Not available.
Flu Activity Not available.
METAR KDRO 041253Z AUTO 00000KT 10SM CLR 11/07 A3027 RMK AO2 SLP173 T01110072

More Conditions Fewer Conditions

Pressure 30.04 in
Visibility 10.0 miles
Clouds Clear
Dew Point 42 °F
Humidity 61%
Rainfall 0.00 in
Snow Depth Not available.
UV 0 out of 12
Pollen 5.50 out of 12
Air Quality Not available.
Flu Activity Not available.
METAR KDRO 041253Z AUTO 00000KT 10SM CLR 11/07 A3027 RMK AO2 SLP173 T01110072

More Conditions Fewer Conditions

10-Day Weather Forecast

×

Almanac

Astronomy

Aug. 04, 2015 Rise Set
Actual Time
Civil Twilight
Nautical Twilight
Astronomical Twilight
Moon
Length of Visible Light
Length of Day
Tomorrow will be .
, % of the Moon is Illuminated

Today's Extremes

State Highs State Lows

Community

WunderPhotos

Upload Photos

1,843,912 photos uploaded!

WunderBlogs® & News

Nearby

Air Quality

  Air Quality AQ Index Pollutant
Not available.

Snow Depth

Station Depth Elevation

Earthquake Activity

City Distance Mag. Time & Date
Minimum magnitude displayed is 2.5.

Coastal Water Temperatures

Place Temperature

Stations

Nearby Weather Stations

Station Location Temp. Windchill Dew Point Humidity Wind Precip. Elev Updated Type